sensor_id;sensor_type;location;lat;lon;timestamp;P1;durP1;ratioP1;P2;durP2;ratioP2
23533;SDS011;11944;50.796;4.322;2022-08-19T00:01:52;2.00;;;1.37;;
23533;SDS011;11944;50.796;4.322;2022-08-19T00:04:23;3.00;;;1.92;;
23533;SDS011;11944;50.796;4.322;2022-08-19T00:06:54;1.20;;;1.10;;
23533;SDS011;11944;50.796;4.322;2022-08-19T00:09:22;1.80;;;1.32;;
23533;SDS011;11944;50.796;4.322;2022-08-19T00:11:50;1.00;;;0.95;;
23533;SDS011;11944;50.796;4.322;2022-08-19T00:14:21;2.00;;;0.80;;
23533;SDS011;11944;50.796;4.322;2022-08-19T00:16:50;1.42;;;0.95;;
23533;SDS011;11944;50.796;4.322;2022-08-19T00:19:20;1.98;;;1.22;;
23533;SDS011;11944;50.796;4.322;2022-08-19T00:21:48;3.22;;;1.82;;
23533;SDS011;11944;50.796;4.322;2022-08-19T00:24:16;1.30;;;1.07;;
23533;SDS011;11944;50.796;4.322;2022-08-19T00:26:44;3.17;;;1.42;;
23533;SDS011;11944;50.796;4.322;2022-08-19T00:29:13;2.02;;;1.42;;
23533;SDS011;11944;50.796;4.322;2022-08-19T00:31:43;4.17;;;2.42;;
23533;SDS011;11944;50.796;4.322;2022-08-19T00:34:12;2.40;;;1.35;;
23533;SDS011;11944;50.796;4.322;2022-08-19T00:36:41;1.32;;;1.05;;
23533;SDS011;11944;50.796;4.322;2022-08-19T00:39:10;0.75;;;0.75;;
23533;SDS011;11944;50.796;4.322;2022-08-19T00:41:39;1.87;;;1.57;;
23533;SDS011;11944;50.796;4.322;2022-08-19T00:44:10;2.02;;;1.02;;
23533;SDS011;11944;50.796;4.322;2022-08-19T00:46:41;1.90;;;1.72;;
23533;SDS011;11944;50.796;4.322;2022-08-19T00:49:15;1.45;;;1.35;;
23533;SDS011;11944;50.796;4.322;2022-08-19T00:51:47;1.47;;;1.10;;
23533;SDS011;11944;50.796;4.322;2022-08-19T00:54:16;2.60;;;1.52;;
23533;SDS011;11944;50.796;4.322;2022-08-19T00:56:45;1.85;;;1.47;;
23533;SDS011;11944;50.796;4.322;2022-08-19T00:59:14;1.67;;;1.57;;
23533;SDS011;11944;50.796;4.322;2022-08-19T01:01:43;1.47;;;1.35;;
23533;SDS011;11944;50.796;4.322;2022-08-19T01:04:12;3.85;;;1.95;;
23533;SDS011;11944;50.796;4.322;2022-08-19T01:06:40;2.17;;;1.80;;
23533;SDS011;11944;50.796;4.322;2022-08-19T01:09:08;2.10;;;1.40;;
23533;SDS011;11944;50.796;4.322;2022-08-19T01:11:37;1.70;;;1.30;;
23533;SDS011;11944;50.796;4.322;2022-08-19T01:14:07;5.87;;;2.85;;
23533;SDS011;11944;50.796;4.322;2022-08-19T01:16:35;3.33;;;2.25;;
23533;SDS011;11944;50.796;4.322;2022-08-19T01:19:12;3.02;;;2.22;;
23533;SDS011;11944;50.796;4.322;2022-08-19T01:21:42;3.77;;;2.12;;
23533;SDS011;11944;50.796;4.322;2022-08-19T01:24:12;3.92;;;2.22;;
23533;SDS011;11944;50.796;4.322;2022-08-19T01:26:41;1.40;;;1.30;;
23533;SDS011;11944;50.796;4.322;2022-08-19T01:29:10;1.70;;;1.60;;
23533;SDS011;11944;50.796;4.322;2022-08-19T01:31:39;2.42;;;1.98;;
23533;SDS011;11944;50.796;4.322;2022-08-19T01:34:07;2.58;;;1.65;;
23533;SDS011;11944;50.796;4.322;2022-08-19T01:36:36;1.72;;;1.60;;
23533;SDS011;11944;50.796;4.322;2022-08-19T01:39:13;19.17;;;4.28;;
23533;SDS011;11944;50.796;4.322;2022-08-19T01:41:41;3.70;;;2.50;;
23533;SDS011;11944;50.796;4.322;2022-08-19T01:44:09;2.02;;;1.92;;
23533;SDS011;11944;50.796;4.322;2022-08-19T01:46:38;1.57;;;1.27;;
23533;SDS011;11944;50.796;4.322;2022-08-19T01:49:06;5.12;;;2.25;;
23533;SDS011;11944;50.796;4.322;2022-08-19T01:51:33;19.40;;;2.92;;
23533;SDS011;11944;50.796;4.322;2022-08-19T01:54:01;3.27;;;2.87;;
23533;SDS011;11944;50.796;4.322;2022-08-19T01:56:29;3.70;;;2.05;;
23533;SDS011;11944;50.796;4.322;2022-08-19T01:58:58;2.65;;;1.80;;
23533;SDS011;11944;50.796;4.322;2022-08-19T02:01:28;2.10;;;1.67;;
23533;SDS011;11944;50.796;4.322;2022-08-19T02:03:57;3.30;;;2.17;;
23533;SDS011;11944;50.796;4.322;2022-08-19T02:06:27;3.22;;;1.98;;
23533;SDS011;11944;50.796;4.322;2022-08-19T02:08:55;2.62;;;1.65;;
23533;SDS011;11944;50.796;4.322;2022-08-19T02:11:24;3.40;;;2.50;;
23533;SDS011;11944;50.796;4.322;2022-08-19T02:16:21;4.87;;;1.57;;
23533;SDS011;11944;50.796;4.322;2022-08-19T02:18:50;3.85;;;1.82;;
23533;SDS011;11944;50.796;4.322;2022-08-19T02:21:18;4.72;;;2.52;;
23533;SDS011;11944;50.796;4.322;2022-08-19T02:23:48;2.92;;;1.85;;
23533;SDS011;11944;50.796;4.322;2022-08-19T02:26:17;2.65;;;1.72;;
23533;SDS011;11944;50.796;4.322;2022-08-19T02:28:45;2.85;;;1.90;;
23533;SDS011;11944;50.796;4.322;2022-08-19T02:31:15;7.92;;;2.45;;
23533;SDS011;11944;50.796;4.322;2022-08-19T02:33:44;6.95;;;2.50;;
23533;SDS011;11944;50.796;4.322;2022-08-19T02:36:13;3.47;;;2.05;;
23533;SDS011;11944;50.796;4.322;2022-08-19T02:38:43;2.00;;;1.80;;
23533;SDS011;11944;50.796;4.322;2022-08-19T02:41:12;4.53;;;3.20;;
23533;SDS011;11944;50.796;4.322;2022-08-19T02:43:41;2.60;;;1.85;;
23533;SDS011;11944;50.796;4.322;2022-08-19T02:46:13;2.00;;;1.70;;
23533;SDS011;11944;50.796;4.322;2022-08-19T02:48:43;1.80;;;1.62;;
23533;SDS011;11944;50.796;4.322;2022-08-19T02:51:15;5.15;;;3.05;;
23533;SDS011;11944;50.796;4.322;2022-08-19T02:53:45;3.22;;;2.00;;
23533;SDS011;11944;50.796;4.322;2022-08-19T02:56:12;5.67;;;2.62;;
23533;SDS011;11944;50.796;4.322;2022-08-19T02:58:40;1.45;;;1.35;;
23533;SDS011;11944;50.796;4.322;2022-08-19T03:01:09;4.30;;;1.67;;
23533;SDS011;11944;50.796;4.322;2022-08-19T03:03:38;3.80;;;2.35;;
23533;SDS011;11944;50.796;4.322;2022-08-19T03:06:09;1.92;;;1.60;;
23533;SDS011;11944;50.796;4.322;2022-08-19T03:08:39;2.83;;;2.20;;
23533;SDS011;11944;50.796;4.322;2022-08-19T03:13:44;3.12;;;1.70;;
23533;SDS011;11944;50.796;4.322;2022-08-19T03:16:11;1.62;;;1.22;;
23533;SDS011;11944;50.796;4.322;2022-08-19T03:18:39;2.80;;;1.72;;
23533;SDS011;11944;50.796;4.322;2022-08-19T03:21:07;7.70;;;2.65;;
23533;SDS011;11944;50.796;4.322;2022-08-19T03:23:35;2.35;;;1.62;;
23533;SDS011;11944;50.796;4.322;2022-08-19T03:26:03;2.35;;;2.15;;
23533;SDS011;11944;50.796;4.322;2022-08-19T03:28:32;3.00;;;1.98;;
23533;SDS011;11944;50.796;4.322;2022-08-19T03:31:19;1.65;;;1.55;;
23533;SDS011;11944;50.796;4.322;2022-08-19T03:33:34;13.50;;;3.90;;
23533;SDS011;11944;50.796;4.322;2022-08-19T03:36:07;1.12;;;1.05;;
23533;SDS011;11944;50.796;4.322;2022-08-19T03:38:45;2.37;;;1.85;;
23533;SDS011;11944;50.796;4.322;2022-08-19T03:41:18;4.78;;;2.37;;
23533;SDS011;11944;50.796;4.322;2022-08-19T03:43:47;2.90;;;0.93;;
23533;SDS011;11944;50.796;4.322;2022-08-19T03:46:16;2.87;;;2.08;;
23533;SDS011;11944;50.796;4.322;2022-08-19T03:48:48;2.02;;;1.00;;
23533;SDS011;11944;50.796;4.322;2022-08-19T03:51:21;1.67;;;1.50;;
23533;SDS011;11944;50.796;4.322;2022-08-19T03:53:51;1.80;;;1.60;;
23533;SDS011;11944;50.796;4.322;2022-08-19T03:56:19;2.42;;;1.57;;
23533;SDS011;11944;50.796;4.322;2022-08-19T03:58:47;2.67;;;1.75;;
23533;SDS011;11944;50.796;4.322;2022-08-19T04:01:16;1.12;;;1.02;;
23533;SDS011;11944;50.796;4.322;2022-08-19T04:03:45;3.92;;;2.05;;
23533;SDS011;11944;50.796;4.322;2022-08-19T04:06:14;4.65;;;2.60;;
23533;SDS011;11944;50.796;4.322;2022-08-19T04:08:44;3.35;;;2.55;;
23533;SDS011;11944;50.796;4.322;2022-08-19T04:11:14;4.08;;;2.12;;
23533;SDS011;11944;50.796;4.322;2022-08-19T04:13:42;3.33;;;2.30;;
23533;SDS011;11944;50.796;4.322;2022-08-19T04:16:10;4.97;;;2.40;;
23533;SDS011;11944;50.796;4.322;2022-08-19T04:18:39;4.30;;;2.37;;
23533;SDS011;11944;50.796;4.322;2022-08-19T04:21:08;1.10;;;1.10;;
23533;SDS011;11944;50.796;4.322;2022-08-19T04:23:37;3.98;;;2.05;;
23533;SDS011;11944;50.796;4.322;2022-08-19T04:26:04;1.95;;;1.27;;
23533;SDS011;11944;50.796;4.322;2022-08-19T04:28:32;4.33;;;3.20;;
23533;SDS011;11944;50.796;4.322;2022-08-19T04:31:01;2.72;;;2.17;;
23533;SDS011;11944;50.796;4.322;2022-08-19T04:33:29;1.42;;;1.32;;
23533;SDS011;11944;50.796;4.322;2022-08-19T04:35:57;2.35;;;1.90;;
23533;SDS011;11944;50.796;4.322;2022-08-19T04:38:25;1.47;;;1.37;;
23533;SDS011;11944;50.796;4.322;2022-08-19T04:40:53;2.08;;;1.85;;
23533;SDS011;11944;50.796;4.322;2022-08-19T04:43:39;1.67;;;1.37;;
23533;SDS011;11944;50.796;4.322;2022-08-19T04:46:07;11.50;;;1.45;;
23533;SDS011;11944;50.796;4.322;2022-08-19T04:48:37;9.03;;;1.60;;
23533;SDS011;11944;50.796;4.322;2022-08-19T04:51:07;5.70;;;1.55;;
23533;SDS011;11944;50.796;4.322;2022-08-19T04:53:37;2.15;;;1.95;;
23533;SDS011;11944;50.796;4.322;2022-08-19T04:56:12;1.77;;;1.57;;
23533;SDS011;11944;50.796;4.322;2022-08-19T04:58:36;1.95;;;1.47;;
23533;SDS011;11944;50.796;4.322;2022-08-19T05:01:04;5.78;;;2.50;;
23533;SDS011;11944;50.796;4.322;2022-08-19T05:03:32;3.17;;;2.55;;
23533;SDS011;11944;50.796;4.322;2022-08-19T05:06:07;4.92;;;1.80;;
23533;SDS011;11944;50.796;4.322;2022-08-19T05:08:37;5.55;;;1.72;;
23533;SDS011;11944;50.796;4.322;2022-08-19T05:11:09;2.67;;;1.65;;
23533;SDS011;11944;50.796;4.322;2022-08-19T05:13:39;2.37;;;2.02;;
23533;SDS011;11944;50.796;4.322;2022-08-19T05:16:08;3.05;;;1.92;;
23533;SDS011;11944;50.796;4.322;2022-08-19T05:18:38;5.20;;;2.05;;
23533;SDS011;11944;50.796;4.322;2022-08-19T05:21:24;4.53;;;2.95;;
23533;SDS011;11944;50.796;4.322;2022-08-19T05:24:10;8.15;;;2.33;;
23533;SDS011;11944;50.796;4.322;2022-08-19T05:26:40;4.30;;;1.72;;
23533;SDS011;11944;50.796;4.322;2022-08-19T05:29:12;4.67;;;2.87;;
23533;SDS011;11944;50.796;4.322;2022-08-19T05:31:41;7.13;;;3.67;;
23533;SDS011;11944;50.796;4.322;2022-08-19T05:34:09;1.32;;;1.22;;
23533;SDS011;11944;50.796;4.322;2022-08-19T05:36:41;3.98;;;1.77;;
23533;SDS011;11944;50.796;4.322;2022-08-19T05:39:12;2.60;;;1.52;;
23533;SDS011;11944;50.796;4.322;2022-08-19T05:41:42;1.80;;;1.70;;
23533;SDS011;11944;50.796;4.322;2022-08-19T05:44:14;6.05;;;2.70;;
23533;SDS011;11944;50.796;4.322;2022-08-19T05:47:01;2.50;;;1.55;;
23533;SDS011;11944;50.796;4.322;2022-08-19T05:49:30;3.15;;;1.60;;
23533;SDS011;11944;50.796;4.322;2022-08-19T05:52:01;1.67;;;0.95;;
23533;SDS011;11944;50.796;4.322;2022-08-19T05:54:30;9.78;;;2.00;;
23533;SDS011;11944;50.796;4.322;2022-08-19T05:56:58;4.25;;;1.12;;
23533;SDS011;11944;50.796;4.322;2022-08-19T05:59:27;1.12;;;0.80;;
23533;SDS011;11944;50.796;4.322;2022-08-19T06:01:54;3.50;;;2.45;;
23533;SDS011;11944;50.796;4.322;2022-08-19T06:04:23;11.22;;;3.98;;
23533;SDS011;11944;50.796;4.322;2022-08-19T06:06:51;11.38;;;2.52;;
23533;SDS011;11944;50.796;4.322;2022-08-19T06:09:20;1.47;;;0.90;;
23533;SDS011;11944;50.796;4.322;2022-08-19T06:11:50;3.90;;;1.92;;
23533;SDS011;11944;50.796;4.322;2022-08-19T06:14:24;0.85;;;0.85;;
23533;SDS011;11944;50.796;4.322;2022-08-19T06:16:54;0.80;;;0.80;;
23533;SDS011;11944;50.796;4.322;2022-08-19T06:19:22;0.60;;;0.60;;
23533;SDS011;11944;50.796;4.322;2022-08-19T06:21:51;1.00;;;0.93;;
23533;SDS011;11944;50.796;4.322;2022-08-19T06:24:21;2.60;;;1.25;;
23533;SDS011;11944;50.796;4.322;2022-08-19T06:26:50;1.37;;;0.65;;
23533;SDS011;11944;50.796;4.322;2022-08-19T06:32:06;1.57;;;0.98;;
23533;SDS011;11944;50.796;4.322;2022-08-19T06:34:33;1.10;;;0.88;;
23533;SDS011;11944;50.796;4.322;2022-08-19T06:37:01;1.20;;;1.07;;
23533;SDS011;11944;50.796;4.322;2022-08-19T06:39:33;1.37;;;0.80;;
23533;SDS011;11944;50.796;4.322;2022-08-19T06:42:02;1.65;;;1.22;;
23533;SDS011;11944;50.796;4.322;2022-08-19T06:44:33;1.72;;;0.95;;
23533;SDS011;11944;50.796;4.322;2022-08-19T06:47:03;0.45;;;0.45;;
23533;SDS011;11944;50.796;4.322;2022-08-19T06:51:59;5.58;;;1.70;;
23533;SDS011;11944;50.796;4.322;2022-08-19T06:54:28;0.70;;;0.70;;
23533;SDS011;11944;50.796;4.322;2022-08-19T06:56:57;1.67;;;1.22;;
23533;SDS011;11944;50.796;4.322;2022-08-19T06:59:27;1.17;;;0.98;;
23533;SDS011;11944;50.796;4.322;2022-08-19T07:01:58;0.90;;;0.90;;
23533;SDS011;11944;50.796;4.322;2022-08-19T07:04:33;1.05;;;1.00;;
23533;SDS011;11944;50.796;4.322;2022-08-19T07:06:58;1.12;;;1.02;;
23533;SDS011;11944;50.796;4.322;2022-08-19T07:09:28;17.70;;;1.85;;
23533;SDS011;11944;50.796;4.322;2022-08-19T07:11:55;1.35;;;0.85;;
23533;SDS011;11944;50.796;4.322;2022-08-19T07:14:26;0.60;;;0.60;;
23533;SDS011;11944;50.796;4.322;2022-08-19T07:16:53;3.93;;;0.90;;
23533;SDS011;11944;50.796;4.322;2022-08-19T07:19:23;0.98;;;0.90;;
23533;SDS011;11944;50.796;4.322;2022-08-19T07:24:21;0.82;;;0.68;;
23533;SDS011;11944;50.796;4.322;2022-08-19T07:26:52;0.65;;;0.60;;
23533;SDS011;11944;50.796;4.322;2022-08-19T07:29:22;0.60;;;0.60;;
23533;SDS011;11944;50.796;4.322;2022-08-19T07:31:50;5.62;;;1.00;;
23533;SDS011;11944;50.796;4.322;2022-08-19T07:34:21;0.85;;;0.60;;
23533;SDS011;11944;50.796;4.322;2022-08-19T07:36:51;1.35;;;1.25;;
23533;SDS011;11944;50.796;4.322;2022-08-19T07:39:23;0.42;;;0.40;;
23533;SDS011;11944;50.796;4.322;2022-08-19T07:41:53;0.53;;;0.33;;
23533;SDS011;11944;50.796;4.322;2022-08-19T07:44:22;0.78;;;0.65;;
23533;SDS011;11944;50.796;4.322;2022-08-19T07:46:51;1.10;;;0.85;;
23533;SDS011;11944;50.796;4.322;2022-08-19T07:49:21;3.95;;;2.00;;
23533;SDS011;11944;50.796;4.322;2022-08-19T07:51:52;0.68;;;0.53;;
23533;SDS011;11944;50.796;4.322;2022-08-19T07:54:21;4.97;;;2.05;;
23533;SDS011;11944;50.796;4.322;2022-08-19T07:56:49;1.98;;;1.05;;
23533;SDS011;11944;50.796;4.322;2022-08-19T07:59:18;1.15;;;0.60;;
23533;SDS011;11944;50.796;4.322;2022-08-19T08:01:47;1.62;;;1.20;;
23533;SDS011;11944;50.796;4.322;2022-08-19T08:04:16;2.27;;;0.90;;
23533;SDS011;11944;50.796;4.322;2022-08-19T08:07:02;0.70;;;0.70;;
23533;SDS011;11944;50.796;4.322;2022-08-19T08:09:49;1.72;;;1.40;;
23533;SDS011;11944;50.796;4.322;2022-08-19T08:12:18;4.45;;;1.70;;
23533;SDS011;11944;50.796;4.322;2022-08-19T08:14:57;1.32;;;0.80;;
23533;SDS011;11944;50.796;4.322;2022-08-19T08:17:28;0.82;;;0.70;;
23533;SDS011;11944;50.796;4.322;2022-08-19T08:19:57;1.65;;;0.57;;
23533;SDS011;11944;50.796;4.322;2022-08-19T08:22:25;0.25;;;0.25;;
23533;SDS011;11944;50.796;4.322;2022-08-19T08:25:12;2.20;;;1.57;;
23533;SDS011;11944;50.796;4.322;2022-08-19T08:27:43;1.75;;;1.62;;
23533;SDS011;11944;50.796;4.322;2022-08-19T08:30:14;3.42;;;2.37;;
23533;SDS011;11944;50.796;4.322;2022-08-19T08:32:42;12.00;;;5.03;;
23533;SDS011;11944;50.796;4.322;2022-08-19T08:35:11;8.40;;;5.10;;
23533;SDS011;11944;50.796;4.322;2022-08-19T08:37:40;3.75;;;2.83;;
23533;SDS011;11944;50.796;4.322;2022-08-19T08:40:23;8.50;;;1.98;;
23533;SDS011;11944;50.796;4.322;2022-08-19T08:42:54;1.15;;;0.75;;
23533;SDS011;11944;50.796;4.322;2022-08-19T08:45:24;1.02;;;0.55;;
23533;SDS011;11944;50.796;4.322;2022-08-19T08:47:51;6.40;;;0.65;;
23533;SDS011;11944;50.796;4.322;2022-08-19T08:50:27;1.52;;;0.95;;
23533;SDS011;11944;50.796;4.322;2022-08-19T08:52:56;0.28;;;0.28;;
23533;SDS011;11944;50.796;4.322;2022-08-19T08:55:26;0.50;;;0.47;;
23533;SDS011;11944;50.796;4.322;2022-08-19T08:58:06;0.45;;;0.45;;
23533;SDS011;11944;50.796;4.322;2022-08-19T09:00:37;0.60;;;0.53;;
23533;SDS011;11944;50.796;4.322;2022-08-19T09:03:02;0.33;;;0.33;;
23533;SDS011;11944;50.796;4.322;2022-08-19T09:05:41;0.68;;;0.40;;
23533;SDS011;11944;50.796;4.322;2022-08-19T09:08:35;0.33;;;0.30;;
23533;SDS011;11944;50.796;4.322;2022-08-19T09:11:13;0.62;;;0.62;;
23533;SDS011;11944;50.796;4.322;2022-08-19T09:16:30;0.57;;;0.57;;
23533;SDS011;11944;50.796;4.322;2022-08-19T09:19:01;0.53;;;0.53;;
23533;SDS011;11944;50.796;4.322;2022-08-19T09:21:31;0.70;;;0.70;;
23533;SDS011;11944;50.796;4.322;2022-08-19T09:24:01;1.00;;;0.75;;
23533;SDS011;11944;50.796;4.322;2022-08-19T09:26:30;0.10;;;0.10;;
23533;SDS011;11944;50.796;4.322;2022-08-19T09:28:59;0.17;;;0.17;;
23533;SDS011;11944;50.796;4.322;2022-08-19T09:31:29;0.55;;;0.50;;
23533;SDS011;11944;50.796;4.322;2022-08-19T09:33:58;0.42;;;0.30;;
23533;SDS011;11944;50.796;4.322;2022-08-19T09:36:28;0.95;;;0.50;;
23533;SDS011;11944;50.796;4.322;2022-08-19T09:38:57;0.85;;;0.55;;
23533;SDS011;11944;50.796;4.322;2022-08-19T09:41:25;0.30;;;0.30;;
23533;SDS011;11944;50.796;4.322;2022-08-19T09:43:54;0.68;;;0.57;;
23533;SDS011;11944;50.796;4.322;2022-08-19T09:46:24;0.70;;;0.70;;
23533;SDS011;11944;50.796;4.322;2022-08-19T09:48:53;0.17;;;0.17;;
23533;SDS011;11944;50.796;4.322;2022-08-19T09:51:24;0.20;;;0.20;;
23533;SDS011;11944;50.796;4.322;2022-08-19T09:53:55;1.20;;;0.72;;
23533;SDS011;11944;50.796;4.322;2022-08-19T09:56:25;0.30;;;0.28;;
23533;SDS011;11944;50.796;4.322;2022-08-19T09:58:53;1.85;;;0.62;;
23533;SDS011;11944;50.796;4.322;2022-08-19T10:01:24;0.20;;;0.20;;
23533;SDS011;11944;50.796;4.322;2022-08-19T10:03:54;0.47;;;0.45;;
23533;SDS011;11944;50.796;4.322;2022-08-19T10:06:24;0.43;;;0.17;;
23533;SDS011;11944;50.796;4.322;2022-08-19T10:08:55;1.65;;;0.82;;
23533;SDS011;11944;50.796;4.322;2022-08-19T10:11:23;10.45;;;1.07;;
23533;SDS011;11944;50.796;4.322;2022-08-19T10:13:50;0.90;;;0.50;;
23533;SDS011;11944;50.796;4.322;2022-08-19T10:16:19;0.55;;;0.50;;
23533;SDS011;11944;50.796;4.322;2022-08-19T10:18:49;0.80;;;0.60;;
23533;SDS011;11944;50.796;4.322;2022-08-19T10:21:18;1.12;;;0.57;;
23533;SDS011;11944;50.796;4.322;2022-08-19T10:23:48;2.15;;;0.78;;
23533;SDS011;11944;50.796;4.322;2022-08-19T10:26:19;1.12;;;0.82;;
23533;SDS011;11944;50.796;4.322;2022-08-19T10:28:48;0.70;;;0.70;;
23533;SDS011;11944;50.796;4.322;2022-08-19T10:31:22;0.98;;;0.47;;
23533;SDS011;11944;50.796;4.322;2022-08-19T10:33:47;0.57;;;0.57;;
23533;SDS011;11944;50.796;4.322;2022-08-19T10:36:17;0.53;;;0.33;;
23533;SDS011;11944;50.796;4.322;2022-08-19T10:38:46;2.08;;;0.78;;
23533;SDS011;11944;50.796;4.322;2022-08-19T10:41:20;1.40;;;0.88;;
23533;SDS011;11944;50.796;4.322;2022-08-19T10:43:54;1.20;;;0.33;;
23533;SDS011;11944;50.796;4.322;2022-08-19T10:46:23;1.00;;;0.57;;
23533;SDS011;11944;50.796;4.322;2022-08-19T10:48:52;0.93;;;0.28;;
23533;SDS011;11944;50.796;4.322;2022-08-19T10:51:20;3.90;;;1.20;;
23533;SDS011;11944;50.796;4.322;2022-08-19T10:54:06;0.95;;;0.85;;
23533;SDS011;11944;50.796;4.322;2022-08-19T10:56:34;0.42;;;0.30;;
23533;SDS011;11944;50.796;4.322;2022-08-19T10:59:21;0.65;;;0.33;;
23533;SDS011;11944;50.796;4.322;2022-08-19T11:01:47;0.28;;;0.28;;
23533;SDS011;11944;50.796;4.322;2022-08-19T11:04:17;0.80;;;0.53;;
23533;SDS011;11944;50.796;4.322;2022-08-19T11:06:46;1.17;;;0.78;;
23533;SDS011;11944;50.796;4.322;2022-08-19T11:09:15;4.27;;;1.13;;
23533;SDS011;11944;50.796;4.322;2022-08-19T11:11:49;3.33;;;1.07;;
23533;SDS011;11944;50.796;4.322;2022-08-19T11:14:19;7.33;;;0.80;;
23533;SDS011;11944;50.796;4.322;2022-08-19T11:16:48;1.10;;;0.80;;
23533;SDS011;11944;50.796;4.322;2022-08-19T11:19:17;0.30;;;0.30;;
23533;SDS011;11944;50.796;4.322;2022-08-19T11:21:45;4.47;;;1.85;;
23533;SDS011;11944;50.796;4.322;2022-08-19T11:24:19;3.95;;;1.32;;
23533;SDS011;11944;50.796;4.322;2022-08-19T11:26:48;1.57;;;1.12;;
23533;SDS011;11944;50.796;4.322;2022-08-19T11:29:18;2.25;;;1.10;;
23533;SDS011;11944;50.796;4.322;2022-08-19T11:31:48;0.80;;;0.55;;
23533;SDS011;11944;50.796;4.322;2022-08-19T11:34:17;3.52;;;0.95;;
23533;SDS011;11944;50.796;4.322;2022-08-19T11:36:47;0.53;;;0.33;;
23533;SDS011;11944;50.796;4.322;2022-08-19T11:39:17;1.02;;;0.68;;
23533;SDS011;11944;50.796;4.322;2022-08-19T11:41:46;1.50;;;1.05;;
23533;SDS011;11944;50.796;4.322;2022-08-19T11:44:14;0.42;;;0.40;;
23533;SDS011;11944;50.796;4.322;2022-08-19T11:46:42;0.75;;;0.45;;
23533;SDS011;11944;50.796;4.322;2022-08-19T11:49:13;1.20;;;0.60;;
23533;SDS011;11944;50.796;4.322;2022-08-19T11:51:44;0.62;;;0.50;;
23533;SDS011;11944;50.796;4.322;2022-08-19T11:54:13;0.28;;;0.20;;
23533;SDS011;11944;50.796;4.322;2022-08-19T11:56:42;1.92;;;0.75;;
23533;SDS011;11944;50.796;4.322;2022-08-19T11:59:11;0.50;;;0.30;;
23533;SDS011;11944;50.796;4.322;2022-08-19T12:01:39;1.72;;;0.82;;
23533;SDS011;11944;50.796;4.322;2022-08-19T12:04:08;1.25;;;0.37;;
23533;SDS011;11944;50.796;4.322;2022-08-19T12:06:37;0.10;;;0.10;;
23533;SDS011;11944;50.796;4.322;2022-08-19T12:09:06;0.75;;;0.62;;
23533;SDS011;11944;50.796;4.322;2022-08-19T12:11:35;0.47;;;0.47;;
23533;SDS011;11944;50.796;4.322;2022-08-19T12:14:05;0.55;;;0.55;;
23533;SDS011;11944;50.796;4.322;2022-08-19T12:16:33;0.45;;;0.42;;
23533;SDS011;11944;50.796;4.322;2022-08-19T12:19:01;0.10;;;0.10;;
23533;SDS011;11944;50.796;4.322;2022-08-19T12:21:32;0.20;;;0.20;;
23533;SDS011;11944;50.796;4.322;2022-08-19T12:26:29;0.20;;;0.20;;
23533;SDS011;11944;50.796;4.322;2022-08-19T12:28:57;0.62;;;0.42;;
23533;SDS011;11944;50.796;4.322;2022-08-19T12:31:26;0.28;;;0.28;;
23533;SDS011;11944;50.796;4.322;2022-08-19T12:33:55;0.42;;;0.42;;
23533;SDS011;11944;50.796;4.322;2022-08-19T12:36:23;0.10;;;0.10;;
23533;SDS011;11944;50.796;4.322;2022-08-19T12:38:51;0.30;;;0.30;;
23533;SDS011;11944;50.796;4.322;2022-08-19T12:41:19;0.55;;;0.35;;
23533;SDS011;11944;50.796;4.322;2022-08-19T12:43:48;0.93;;;0.65;;
23533;SDS011;11944;50.796;4.322;2022-08-19T12:46:15;0.40;;;0.40;;
23533;SDS011;11944;50.796;4.322;2022-08-19T12:48:45;4.35;;;0.55;;
23533;SDS011;11944;50.796;4.322;2022-08-19T12:51:14;0.40;;;0.40;;
23533;SDS011;11944;50.796;4.322;2022-08-19T12:53:45;1.75;;;0.75;;
23533;SDS011;11944;50.796;4.322;2022-08-19T12:56:13;0.10;;;0.10;;
23533;SDS011;11944;50.796;4.322;2022-08-19T12:58:42;0.35;;;0.20;;
23533;SDS011;11944;50.796;4.322;2022-08-19T13:01:11;0.30;;;0.30;;
23533;SDS011;11944;50.796;4.322;2022-08-19T13:03:40;0.53;;;0.28;;
23533;SDS011;11944;50.796;4.322;2022-08-19T13:06:09;0.17;;;0.17;;
23533;SDS011;11944;50.796;4.322;2022-08-19T13:08:37;0.35;;;0.17;;
23533;SDS011;11944;50.796;4.322;2022-08-19T13:13:40;0.33;;;0.33;;
23533;SDS011;11944;50.796;4.322;2022-08-19T13:16:09;0.00;;;0.00;;
23533;SDS011;11944;50.796;4.322;2022-08-19T13:18:38;0.00;;;0.00;;
23533;SDS011;11944;50.796;4.322;2022-08-19T13:21:08;0.28;;;0.28;;
23533;SDS011;11944;50.796;4.322;2022-08-19T13:23:40;0.40;;;0.20;;
23533;SDS011;11944;50.796;4.322;2022-08-19T13:26:08;5.08;;;0.65;;
23533;SDS011;11944;50.796;4.322;2022-08-19T13:28:40;0.15;;;0.15;;
23533;SDS011;11944;50.796;4.322;2022-08-19T13:31:28;0.10;;;0.10;;
23533;SDS011;11944;50.796;4.322;2022-08-19T13:34:15;0.50;;;0.28;;
23533;SDS011;11944;50.796;4.322;2022-08-19T13:36:45;0.82;;;0.65;;
23533;SDS011;11944;50.796;4.322;2022-08-19T13:39:13;0.20;;;0.20;;
23533;SDS011;11944;50.796;4.322;2022-08-19T13:41:43;0.20;;;0.20;;
23533;SDS011;11944;50.796;4.322;2022-08-19T13:44:14;0.47;;;0.40;;
23533;SDS011;11944;50.796;4.322;2022-08-19T13:46:44;0.37;;;0.37;;
23533;SDS011;11944;50.796;4.322;2022-08-19T13:49:12;0.30;;;0.10;;
23533;SDS011;11944;50.796;4.322;2022-08-19T13:51:42;0.93;;;0.23;;
23533;SDS011;11944;50.796;4.322;2022-08-19T13:54:11;0.83;;;0.80;;
23533;SDS011;11944;50.796;4.322;2022-08-19T13:56:42;0.55;;;0.10;;
23533;SDS011;11944;50.796;4.322;2022-08-19T13:59:11;0.13;;;0.13;;
23533;SDS011;11944;50.796;4.322;2022-08-19T14:01:39;0.23;;;0.20;;
23533;SDS011;11944;50.796;4.322;2022-08-19T14:04:07;1.12;;;0.65;;
23533;SDS011;11944;50.796;4.322;2022-08-19T14:06:35;0.10;;;0.08;;
23533;SDS011;11944;50.796;4.322;2022-08-19T14:09:03;0.37;;;0.25;;
23533;SDS011;11944;50.796;4.322;2022-08-19T14:11:31;0.20;;;0.20;;
23533;SDS011;11944;50.796;4.322;2022-08-19T14:13:58;0.20;;;0.20;;
23533;SDS011;11944;50.796;4.322;2022-08-19T14:16:26;0.30;;;0.30;;
23533;SDS011;11944;50.796;4.322;2022-08-19T14:18:55;0.10;;;0.10;;
23533;SDS011;11944;50.796;4.322;2022-08-19T14:21:23;0.10;;;0.10;;
23533;SDS011;11944;50.796;4.322;2022-08-19T14:23:51;0.00;;;0.00;;
23533;SDS011;11944;50.796;4.322;2022-08-19T14:26:20;1.02;;;0.37;;
23533;SDS011;11944;50.796;4.322;2022-08-19T14:28:48;0.72;;;0.68;;
23533;SDS011;11944;50.796;4.322;2022-08-19T14:31:18;0.10;;;0.10;;
23533;SDS011;11944;50.796;4.322;2022-08-19T14:33:48;0.00;;;0.00;;
23533;SDS011;11944;50.796;4.322;2022-08-19T14:36:18;0.08;;;0.08;;
23533;SDS011;11944;50.796;4.322;2022-08-19T14:38:47;0.10;;;0.00;;
23533;SDS011;11944;50.796;4.322;2022-08-19T14:41:18;0.20;;;0.20;;
23533;SDS011;11944;50.796;4.322;2022-08-19T14:43:48;7.12;;;1.22;;
23533;SDS011;11944;50.796;4.322;2022-08-19T14:48:48;0.30;;;0.30;;
23533;SDS011;11944;50.796;4.322;2022-08-19T14:51:16;0.20;;;0.20;;
23533;SDS011;11944;50.796;4.322;2022-08-19T14:56:33;0.00;;;0.00;;
23533;SDS011;11944;50.796;4.322;2022-08-19T14:59:00;0.00;;;0.00;;
23533;SDS011;11944;50.796;4.322;2022-08-19T15:01:28;0.55;;;0.55;;
23533;SDS011;11944;50.796;4.322;2022-08-19T15:03:56;0.33;;;0.33;;
23533;SDS011;11944;50.796;4.322;2022-08-19T15:06:24;0.30;;;0.03;;
23533;SDS011;11944;50.796;4.322;2022-08-19T15:08:52;0.00;;;0.00;;
23533;SDS011;11944;50.796;4.322;2022-08-19T15:11:21;0.10;;;0.10;;
23533;SDS011;11944;50.796;4.322;2022-08-19T15:13:50;0.08;;;0.08;;
23533;SDS011;11944;50.796;4.322;2022-08-19T15:16:18;0.15;;;0.15;;
23533;SDS011;11944;50.796;4.322;2022-08-19T15:18:48;0.20;;;0.20;;
23533;SDS011;11944;50.796;4.322;2022-08-19T15:23:45;0.00;;;0.00;;
23533;SDS011;11944;50.796;4.322;2022-08-19T15:26:14;0.00;;;0.00;;
23533;SDS011;11944;50.796;4.322;2022-08-19T15:28:43;0.47;;;0.20;;
23533;SDS011;11944;50.796;4.322;2022-08-19T15:31:11;1.07;;;0.20;;
23533;SDS011;11944;50.796;4.322;2022-08-19T15:33:40;0.03;;;0.00;;